Kezdőlap
METAR-TAF:

METAR-TAF

Repülőterek :

Koror, Babeldaob, Palau

földrajzi szélesség: 07-22N, földrajzi hosszúság: 134-32E, magasság: 54 m

Jelenlegi meteorológiai megfigyelések

A jelentés 50 perccel ezelõtt készült, 04:52 UTC
Kelet-délkeleti szél 9 kt széllökések: 16 kt
Hőmérséklet 30°C
Páratartalom 75%
Légköri nyomás 1007 hPa
Látótávolság: 24.1 km
Kevés felhő 1000 lábon
Szórványos felhőzet 1600 lábon
Szakadozott felhőzet 12000 lábon
Szakadozott felhőzet 30000 lábon

METAR: PTRO 200452Z 12009G16KT 15SM FEW010 SCT016 BKN120 BKN300 30/25 A2974

Idő: 14:42 (05:42 UTC)

Előrejelzés

A jelentés 6 órával és 19 perccel ezelõtt készült, 23:23 UTC
Az előrejelzés 20-én 00 óra UTC és 20-én 24 óra UTC között érvényes
Délkeleti szél 11 kt
Látótávolság: 10 km
Szórványos felhőzet 1600 lábon
Szórványos felhőzet 12000 lábon
Záporok a közelben

TAF: PTRO 192323Z 2000/2024 13011KT P6SM VCSH SCT016 SCT120

Meteorológiai megfigyelések és előrejelzések több, mint 4000 repülőtéren (METAR és TAF jelentéseket).

A térképen piros és sárga pontok jelzik az elérhető meteorológiai állomásokat.

Mozgassa az egeret a pont fölött, hogy megjelenjen az állomás neve.

Azután kattintson az időjárási megfigyelések és előrejelzések megtekintéséhez.

A térkép megváltoztatása: kattintson a fekete keresztel jelölt zöld gombra ráközelítéshez, a vonallal jelölt zöld gombra távolításhoz, vagy a zöld nyilakra a szomszédos térképek eléréséhez.


METAR-TAF: